sensor_id;sensor_type;location;lat;lon;timestamp;P1;durP1;ratioP1;P2;durP2;ratioP2
29432;SDS011;16405;53.964;13.448;2023-05-10T00:00:38;17.77;;;3.50;;
29432;SDS011;16405;53.964;13.448;2023-05-10T00:03:04;9.27;;;3.25;;
29432;SDS011;16405;53.964;13.448;2023-05-10T00:05:31;5.40;;;3.30;;
29432;SDS011;16405;53.964;13.448;2023-05-10T00:07:57;7.28;;;3.08;;
29432;SDS011;16405;53.964;13.448;2023-05-10T00:10:23;8.88;;;3.47;;
29432;SDS011;16405;53.964;13.448;2023-05-10T00:12:48;7.82;;;3.10;;
29432;SDS011;16405;53.964;13.448;2023-05-10T00:15:14;6.22;;;3.78;;
29432;SDS011;16405;53.964;13.448;2023-05-10T00:17:40;7.72;;;3.60;;
29432;SDS011;16405;53.964;13.448;2023-05-10T00:20:06;8.85;;;3.42;;
29432;SDS011;16405;53.964;13.448;2023-05-10T00:22:33;8.30;;;3.53;;
29432;SDS011;16405;53.964;13.448;2023-05-10T00:24:58;13.98;;;4.13;;
29432;SDS011;16405;53.964;13.448;2023-05-10T00:27:24;10.77;;;3.83;;
29432;SDS011;16405;53.964;13.448;2023-05-10T00:29:50;9.85;;;3.95;;
29432;SDS011;16405;53.964;13.448;2023-05-10T00:32:16;9.38;;;3.58;;
29432;SDS011;16405;53.964;13.448;2023-05-10T00:34:42;6.40;;;3.67;;
29432;SDS011;16405;53.964;13.448;2023-05-10T00:37:07;9.45;;;3.83;;
29432;SDS011;16405;53.964;13.448;2023-05-10T00:39:33;6.30;;;3.60;;
29432;SDS011;16405;53.964;13.448;2023-05-10T00:41:59;10.50;;;3.60;;
29432;SDS011;16405;53.964;13.448;2023-05-10T00:44:25;11.73;;;3.72;;
29432;SDS011;16405;53.964;13.448;2023-05-10T00:46:51;10.70;;;3.45;;
29432;SDS011;16405;53.964;13.448;2023-05-10T00:49:18;9.90;;;4.05;;
29432;SDS011;16405;53.964;13.448;2023-05-10T00:51:45;8.07;;;3.50;;
29432;SDS011;16405;53.964;13.448;2023-05-10T00:54:11;7.28;;;3.78;;
29432;SDS011;16405;53.964;13.448;2023-05-10T00:56:38;9.90;;;3.72;;
29432;SDS011;16405;53.964;13.448;2023-05-10T00:59:05;10.82;;;3.53;;
29432;SDS011;16405;53.964;13.448;2023-05-10T01:01:35;9.57;;;3.15;;
29432;SDS011;16405;53.964;13.448;2023-05-10T01:04:01;12.10;;;3.75;;
29432;SDS011;16405;53.964;13.448;2023-05-10T01:06:28;8.70;;;3.72;;
29432;SDS011;16405;53.964;13.448;2023-05-10T01:08:54;6.00;;;3.45;;
29432;SDS011;16405;53.964;13.448;2023-05-10T01:11:21;8.57;;;3.65;;
29432;SDS011;16405;53.964;13.448;2023-05-10T01:13:47;14.32;;;3.80;;
29432;SDS011;16405;53.964;13.448;2023-05-10T01:16:21;8.30;;;4.07;;
29432;SDS011;16405;53.964;13.448;2023-05-10T01:18:47;9.73;;;4.10;;
29432;SDS011;16405;53.964;13.448;2023-05-10T01:27:19;6.53;;;4.07;;
29432;SDS011;16405;53.964;13.448;2023-05-10T01:33:15;7.30;;;4.32;;
29432;SDS011;16405;53.964;13.448;2023-05-10T01:36:13;10.73;;;4.78;;
29432;SDS011;16405;53.964;13.448;2023-05-10T01:42:03;11.57;;;4.00;;
29432;SDS011;16405;53.964;13.448;2023-05-10T01:50:35;23.10;;;4.18;;
29432;SDS011;16405;53.964;13.448;2023-05-10T01:53:04;13.00;;;4.22;;
29432;SDS011;16405;53.964;13.448;2023-05-10T01:55:41;11.02;;;4.18;;
29432;SDS011;16405;53.964;13.448;2023-05-10T01:58:19;8.43;;;3.30;;
29432;SDS011;16405;53.964;13.448;2023-05-10T02:00:54;8.25;;;4.10;;
29432;SDS011;16405;53.964;13.448;2023-05-10T02:03:24;10.27;;;4.30;;
29432;SDS011;16405;53.964;13.448;2023-05-10T02:05:52;7.80;;;4.40;;
29432;SDS011;16405;53.964;13.448;2023-05-10T02:08:20;9.02;;;4.10;;
29432;SDS011;16405;53.964;13.448;2023-05-10T02:10:49;10.40;;;3.88;;
29432;SDS011;16405;53.964;13.448;2023-05-10T02:13:17;14.35;;;4.72;;
29432;SDS011;16405;53.964;13.448;2023-05-10T02:15:46;10.63;;;4.05;;
29432;SDS011;16405;53.964;13.448;2023-05-10T02:18:14;7.82;;;3.92;;
29432;SDS011;16405;53.964;13.448;2023-05-10T02:20:41;15.75;;;4.43;;
29432;SDS011;16405;53.964;13.448;2023-05-10T02:23:10;10.52;;;4.57;;
29432;SDS011;16405;53.964;13.448;2023-05-10T02:25:37;10.20;;;3.92;;
29432;SDS011;16405;53.964;13.448;2023-05-10T02:28:04;14.48;;;4.47;;
29432;SDS011;16405;53.964;13.448;2023-05-10T02:30:32;15.85;;;4.55;;
29432;SDS011;16405;53.964;13.448;2023-05-10T02:32:59;10.35;;;4.43;;
29432;SDS011;16405;53.964;13.448;2023-05-10T02:35:29;14.85;;;4.38;;
29432;SDS011;16405;53.964;13.448;2023-05-10T02:37:56;10.70;;;4.78;;
29432;SDS011;16405;53.964;13.448;2023-05-10T02:40:23;11.65;;;3.83;;
29432;SDS011;16405;53.964;13.448;2023-05-10T02:42:50;7.70;;;3.75;;
29432;SDS011;16405;53.964;13.448;2023-05-10T02:45:20;10.85;;;4.32;;
29432;SDS011;16405;53.964;13.448;2023-05-10T02:47:50;12.55;;;4.40;;
29432;SDS011;16405;53.964;13.448;2023-05-10T02:50:17;10.48;;;4.18;;
29432;SDS011;16405;53.964;13.448;2023-05-10T02:52:47;9.05;;;4.88;;
29432;SDS011;16405;53.964;13.448;2023-05-10T02:55:19;8.48;;;4.25;;
29432;SDS011;16405;53.964;13.448;2023-05-10T02:57:52;15.23;;;4.55;;
29432;SDS011;16405;53.964;13.448;2023-05-10T03:00:25;10.15;;;4.32;;
29432;SDS011;16405;53.964;13.448;2023-05-10T03:02:51;8.93;;;4.85;;
29432;SDS011;16405;53.964;13.448;2023-05-10T03:05:18;9.57;;;4.70;;
29432;SDS011;16405;53.964;13.448;2023-05-10T03:07:44;12.18;;;5.68;;
29432;SDS011;16405;53.964;13.448;2023-05-10T03:10:11;14.07;;;4.65;;
29432;SDS011;16405;53.964;13.448;2023-05-10T03:12:57;10.50;;;5.13;;
29432;SDS011;16405;53.964;13.448;2023-05-10T03:16:02;11.70;;;4.22;;
29432;SDS011;16405;53.964;13.448;2023-05-10T03:18:44;10.98;;;5.03;;
29432;SDS011;16405;53.964;13.448;2023-05-10T03:21:19;12.25;;;4.22;;
29432;SDS011;16405;53.964;13.448;2023-05-10T03:23:50;11.02;;;5.03;;
29432;SDS011;16405;53.964;13.448;2023-05-10T03:26:24;11.20;;;4.73;;
29432;SDS011;16405;53.964;13.448;2023-05-10T03:28:52;9.90;;;4.85;;
29432;SDS011;16405;53.964;13.448;2023-05-10T03:31:19;9.85;;;4.75;;
29432;SDS011;16405;53.964;13.448;2023-05-10T03:33:48;11.23;;;4.80;;
29432;SDS011;16405;53.964;13.448;2023-05-10T03:36:17;15.45;;;5.00;;
29432;SDS011;16405;53.964;13.448;2023-05-10T03:38:43;9.10;;;4.38;;
29432;SDS011;16405;53.964;13.448;2023-05-10T03:41:09;11.25;;;4.63;;
29432;SDS011;16405;53.964;13.448;2023-05-10T03:43:35;13.02;;;4.88;;
29432;SDS011;16405;53.964;13.448;2023-05-10T03:46:04;13.35;;;4.95;;
29432;SDS011;16405;53.964;13.448;2023-05-10T03:48:31;8.10;;;4.43;;
29432;SDS011;16405;53.964;13.448;2023-05-10T03:50:57;10.40;;;4.72;;
29432;SDS011;16405;53.964;13.448;2023-05-10T03:53:23;11.82;;;4.70;;
29432;SDS011;16405;53.964;13.448;2023-05-10T03:55:50;9.15;;;4.78;;
29432;SDS011;16405;53.964;13.448;2023-05-10T03:58:16;11.00;;;5.43;;
29432;SDS011;16405;53.964;13.448;2023-05-10T04:00:41;11.35;;;5.03;;
29432;SDS011;16405;53.964;13.448;2023-05-10T04:03:10;11.15;;;5.13;;
29432;SDS011;16405;53.964;13.448;2023-05-10T04:05:36;9.07;;;4.85;;
29432;SDS011;16405;53.964;13.448;2023-05-10T04:08:02;9.02;;;4.45;;
29432;SDS011;16405;53.964;13.448;2023-05-10T04:10:29;14.38;;;4.80;;
29432;SDS011;16405;53.964;13.448;2023-05-10T04:12:55;8.00;;;4.15;;
29432;SDS011;16405;53.964;13.448;2023-05-10T04:15:23;11.93;;;4.32;;
29432;SDS011;16405;53.964;13.448;2023-05-10T04:17:49;8.63;;;4.68;;
29432;SDS011;16405;53.964;13.448;2023-05-10T04:20:15;10.23;;;4.05;;
29432;SDS011;16405;53.964;13.448;2023-05-10T04:22:41;7.95;;;4.15;;
29432;SDS011;16405;53.964;13.448;2023-05-10T04:25:07;11.63;;;4.35;;
29432;SDS011;16405;53.964;13.448;2023-05-10T04:27:34;9.30;;;4.00;;
29432;SDS011;16405;53.964;13.448;2023-05-10T04:30:00;8.63;;;4.20;;
29432;SDS011;16405;53.964;13.448;2023-05-10T04:32:26;7.25;;;4.18;;
29432;SDS011;16405;53.964;13.448;2023-05-10T04:34:52;18.27;;;4.45;;
29432;SDS011;16405;53.964;13.448;2023-05-10T04:39:44;11.93;;;4.13;;
29432;SDS011;16405;53.964;13.448;2023-05-10T04:44:36;6.90;;;4.07;;
29432;SDS011;16405;53.964;13.448;2023-05-10T04:47:04;9.73;;;4.03;;
29432;SDS011;16405;53.964;13.448;2023-05-10T04:49:30;12.35;;;4.68;;
29432;SDS011;16405;53.964;13.448;2023-05-10T04:54:21;13.27;;;4.22;;
29432;SDS011;16405;53.964;13.448;2023-05-10T04:59:13;10.63;;;4.50;;
29432;SDS011;16405;53.964;13.448;2023-05-10T05:04:05;8.65;;;4.55;;
29432;SDS011;16405;53.964;13.448;2023-05-10T05:06:31;8.52;;;4.15;;
29432;SDS011;16405;53.964;13.448;2023-05-10T05:08:57;8.40;;;4.40;;
29432;SDS011;16405;53.964;13.448;2023-05-10T05:11:23;10.18;;;4.30;;
29432;SDS011;16405;53.964;13.448;2023-05-10T05:13:50;9.27;;;4.40;;
29432;SDS011;16405;53.964;13.448;2023-05-10T05:16:16;10.40;;;4.18;;
29432;SDS011;16405;53.964;13.448;2023-05-10T05:18:42;10.68;;;4.25;;
29432;SDS011;16405;53.964;13.448;2023-05-10T05:21:14;8.25;;;3.88;;
29432;SDS011;16405;53.964;13.448;2023-05-10T05:26:10;7.68;;;4.00;;
29432;SDS011;16405;53.964;13.448;2023-05-10T05:28:36;8.35;;;4.03;;
29432;SDS011;16405;53.964;13.448;2023-05-10T05:31:06;9.85;;;4.20;;
29432;SDS011;16405;53.964;13.448;2023-05-10T05:33:32;6.72;;;3.95;;
29432;SDS011;16405;53.964;13.448;2023-05-10T05:36:02;24.60;;;4.63;;
29432;SDS011;16405;53.964;13.448;2023-05-10T05:38:30;14.23;;;4.40;;
29432;SDS011;16405;53.964;13.448;2023-05-10T05:40:56;10.63;;;3.75;;
29432;SDS011;16405;53.964;13.448;2023-05-10T05:43:22;9.35;;;4.40;;
29432;SDS011;16405;53.964;13.448;2023-05-10T05:45:48;13.38;;;4.13;;
29432;SDS011;16405;53.964;13.448;2023-05-10T05:50:40;7.22;;;4.20;;
29432;SDS011;16405;53.964;13.448;2023-05-10T05:55:31;9.13;;;3.95;;
29432;SDS011;16405;53.964;13.448;2023-05-10T05:57:57;10.98;;;3.90;;
29432;SDS011;16405;53.964;13.448;2023-05-10T06:00:23;6.60;;;3.53;;
29432;SDS011;16405;53.964;13.448;2023-05-10T06:02:49;6.82;;;3.78;;
29432;SDS011;16405;53.964;13.448;2023-05-10T06:05:15;9.77;;;3.42;;
29432;SDS011;16405;53.964;13.448;2023-05-10T06:07:41;9.40;;;3.65;;
29432;SDS011;16405;53.964;13.448;2023-05-10T06:10:07;12.73;;;4.00;;
29432;SDS011;16405;53.964;13.448;2023-05-10T06:12:34;5.95;;;3.60;;
29432;SDS011;16405;53.964;13.448;2023-05-10T06:15:00;7.50;;;3.83;;
29432;SDS011;16405;53.964;13.448;2023-05-10T06:17:27;6.40;;;3.60;;
29432;SDS011;16405;53.964;13.448;2023-05-10T06:19:53;7.97;;;3.90;;
29432;SDS011;16405;53.964;13.448;2023-05-10T06:22:19;9.95;;;3.60;;
29432;SDS011;16405;53.964;13.448;2023-05-10T06:24:47;6.45;;;2.75;;
29432;SDS011;16405;53.964;13.448;2023-05-10T06:27:14;11.48;;;3.22;;
29432;SDS011;16405;53.964;13.448;2023-05-10T06:29:39;7.43;;;3.50;;
29432;SDS011;16405;53.964;13.448;2023-05-10T06:32:05;8.90;;;3.80;;
29432;SDS011;16405;53.964;13.448;2023-05-10T06:34:31;10.65;;;3.55;;
29432;SDS011;16405;53.964;13.448;2023-05-10T06:39:23;5.90;;;3.40;;
29432;SDS011;16405;53.964;13.448;2023-05-10T06:44:14;6.57;;;3.35;;
29432;SDS011;16405;53.964;13.448;2023-05-10T06:46:40;8.45;;;3.67;;
29432;SDS011;16405;53.964;13.448;2023-05-10T06:49:06;13.73;;;3.70;;
29432;SDS011;16405;53.964;13.448;2023-05-10T06:51:32;7.00;;;3.35;;
29432;SDS011;16405;53.964;13.448;2023-05-10T06:53:58;10.07;;;3.85;;
29432;SDS011;16405;53.964;13.448;2023-05-10T06:56:25;11.32;;;3.83;;
29432;SDS011;16405;53.964;13.448;2023-05-10T06:58:51;5.43;;;3.05;;
29432;SDS011;16405;53.964;13.448;2023-05-10T07:03:42;8.15;;;3.25;;
29432;SDS011;16405;53.964;13.448;2023-05-10T07:08:34;7.05;;;3.35;;
29432;SDS011;16405;53.964;13.448;2023-05-10T07:11:00;8.98;;;3.60;;
29432;SDS011;16405;53.964;13.448;2023-05-10T07:13:32;6.18;;;3.53;;
29432;SDS011;16405;53.964;13.448;2023-05-10T07:16:00;6.47;;;3.15;;
29432;SDS011;16405;53.964;13.448;2023-05-10T07:18:27;6.40;;;2.58;;
29432;SDS011;16405;53.964;13.448;2023-05-10T07:20:53;10.45;;;3.33;;
29432;SDS011;16405;53.964;13.448;2023-05-10T07:23:20;8.80;;;3.70;;
29432;SDS011;16405;53.964;13.448;2023-05-10T07:25:46;6.35;;;3.38;;
29432;SDS011;16405;53.964;13.448;2023-05-10T07:28:14;9.65;;;3.20;;
29432;SDS011;16405;53.964;13.448;2023-05-10T07:30:41;7.82;;;3.05;;
29432;SDS011;16405;53.964;13.448;2023-05-10T07:33:08;6.78;;;3.17;;
29432;SDS011;16405;53.964;13.448;2023-05-10T07:35:35;9.00;;;3.58;;
29432;SDS011;16405;53.964;13.448;2023-05-10T07:38:01;5.60;;;3.15;;
29432;SDS011;16405;53.964;13.448;2023-05-10T07:40:27;5.07;;;3.40;;
29432;SDS011;16405;53.964;13.448;2023-05-10T07:42:54;8.35;;;3.45;;
29432;SDS011;16405;53.964;13.448;2023-05-10T07:45:20;9.88;;;3.20;;
29432;SDS011;16405;53.964;13.448;2023-05-10T07:47:47;14.90;;;3.20;;
29432;SDS011;16405;53.964;13.448;2023-05-10T07:50:13;10.07;;;3.25;;
29432;SDS011;16405;53.964;13.448;2023-05-10T07:52:39;6.82;;;3.28;;
29432;SDS011;16405;53.964;13.448;2023-05-10T07:55:05;11.07;;;3.22;;
29432;SDS011;16405;53.964;13.448;2023-05-10T07:57:35;5.82;;;3.13;;
29432;SDS011;16405;53.964;13.448;2023-05-10T08:00:01;6.22;;;3.05;;
29432;SDS011;16405;53.964;13.448;2023-05-10T08:02:28;8.23;;;3.15;;
29432;SDS011;16405;53.964;13.448;2023-05-10T08:04:54;8.27;;;2.90;;
29432;SDS011;16405;53.964;13.448;2023-05-10T08:07:20;6.35;;;2.92;;
29432;SDS011;16405;53.964;13.448;2023-05-10T08:09:46;5.60;;;2.53;;
29432;SDS011;16405;53.964;13.448;2023-05-10T08:12:12;8.98;;;3.10;;
29432;SDS011;16405;53.964;13.448;2023-05-10T08:14:38;8.82;;;2.80;;
29432;SDS011;16405;53.964;13.448;2023-05-10T08:19:30;6.60;;;3.03;;
29432;SDS011;16405;53.964;13.448;2023-05-10T08:21:56;5.40;;;2.95;;
29432;SDS011;16405;53.964;13.448;2023-05-10T08:24:22;5.63;;;2.50;;
29432;SDS011;16405;53.964;13.448;2023-05-10T08:26:47;7.13;;;2.22;;
29432;SDS011;16405;53.964;13.448;2023-05-10T08:29:14;6.32;;;2.88;;
29432;SDS011;16405;53.964;13.448;2023-05-10T08:31:40;8.73;;;2.90;;
29432;SDS011;16405;53.964;13.448;2023-05-10T08:34:06;7.22;;;2.50;;
29432;SDS011;16405;53.964;13.448;2023-05-10T08:36:32;10.80;;;3.05;;
29432;SDS011;16405;53.964;13.448;2023-05-10T08:38:58;7.25;;;2.67;;
29432;SDS011;16405;53.964;13.448;2023-05-10T08:41:24;8.40;;;2.60;;
29432;SDS011;16405;53.964;13.448;2023-05-10T08:43:51;7.97;;;3.20;;
29432;SDS011;16405;53.964;13.448;2023-05-10T08:46:19;6.82;;;2.47;;
29432;SDS011;16405;53.964;13.448;2023-05-10T08:48:48;6.85;;;2.80;;
29432;SDS011;16405;53.964;13.448;2023-05-10T08:51:22;13.13;;;2.97;;
29432;SDS011;16405;53.964;13.448;2023-05-10T08:53:52;6.50;;;2.33;;
29432;SDS011;16405;53.964;13.448;2023-05-10T08:56:18;14.85;;;2.72;;
29432;SDS011;16405;53.964;13.448;2023-05-10T08:58:45;4.35;;;2.40;;
29432;SDS011;16405;53.964;13.448;2023-05-10T09:01:11;4.93;;;2.53;;
29432;SDS011;16405;53.964;13.448;2023-05-10T09:03:38;8.57;;;2.60;;
29432;SDS011;16405;53.964;13.448;2023-05-10T09:06:05;10.23;;;2.63;;
29432;SDS011;16405;53.964;13.448;2023-05-10T09:08:32;6.78;;;2.30;;
29432;SDS011;16405;53.964;13.448;2023-05-10T09:11:00;8.15;;;2.80;;
29432;SDS011;16405;53.964;13.448;2023-05-10T09:13:26;4.68;;;2.35;;
29432;SDS011;16405;53.964;13.448;2023-05-10T09:15:53;6.30;;;2.50;;
29432;SDS011;16405;53.964;13.448;2023-05-10T09:18:22;4.28;;;2.50;;
29432;SDS011;16405;53.964;13.448;2023-05-10T09:20:48;7.80;;;2.60;;
29432;SDS011;16405;53.964;13.448;2023-05-10T09:23:18;6.30;;;2.30;;
29432;SDS011;16405;53.964;13.448;2023-05-10T09:25:44;2.85;;;2.00;;
29432;SDS011;16405;53.964;13.448;2023-05-10T09:28:11;8.25;;;2.78;;
29432;SDS011;16405;53.964;13.448;2023-05-10T09:30:42;8.85;;;2.90;;
29432;SDS011;16405;53.964;13.448;2023-05-10T09:33:18;4.78;;;2.40;;
29432;SDS011;16405;53.964;13.448;2023-05-10T09:35:44;9.57;;;3.15;;
29432;SDS011;16405;53.964;13.448;2023-05-10T09:38:12;7.25;;;2.30;;
29432;SDS011;16405;53.964;13.448;2023-05-10T09:40:38;9.35;;;2.63;;
29432;SDS011;16405;53.964;13.448;2023-05-10T09:43:07;4.97;;;2.60;;
29432;SDS011;16405;53.964;13.448;2023-05-10T09:45:35;6.55;;;2.15;;
29432;SDS011;16405;53.964;13.448;2023-05-10T09:48:06;6.03;;;2.05;;
29432;SDS011;16405;53.964;13.448;2023-05-10T09:50:32;10.18;;;2.45;;
29432;SDS011;16405;53.964;13.448;2023-05-10T09:52:59;10.52;;;2.58;;
29432;SDS011;16405;53.964;13.448;2023-05-10T09:55:41;10.75;;;2.47;;
29432;SDS011;16405;53.964;13.448;2023-05-10T09:58:12;8.13;;;2.15;;
29432;SDS011;16405;53.964;13.448;2023-05-10T10:00:44;6.38;;;2.08;;
29432;SDS011;16405;53.964;13.448;2023-05-10T10:03:20;9.10;;;2.10;;
29432;SDS011;16405;53.964;13.448;2023-05-10T10:05:50;5.57;;;2.05;;
29432;SDS011;16405;53.964;13.448;2023-05-10T10:08:17;7.40;;;2.00;;
29432;SDS011;16405;53.964;13.448;2023-05-10T10:10:46;8.45;;;2.15;;
29432;SDS011;16405;53.964;13.448;2023-05-10T10:13:13;7.28;;;1.90;;
29432;SDS011;16405;53.964;13.448;2023-05-10T10:15:40;7.65;;;2.10;;
29432;SDS011;16405;53.964;13.448;2023-05-10T10:18:12;6.25;;;1.92;;
29432;SDS011;16405;53.964;13.448;2023-05-10T10:20:40;8.23;;;2.00;;
29432;SDS011;16405;53.964;13.448;2023-05-10T10:23:07;16.17;;;2.50;;
29432;SDS011;16405;53.964;13.448;2023-05-10T10:25:37;6.35;;;2.10;;
29432;SDS011;16405;53.964;13.448;2023-05-10T10:31:11;7.28;;;2.17;;
29432;SDS011;16405;53.964;13.448;2023-05-10T10:34:05;3.08;;;1.90;;
29432;SDS011;16405;53.964;13.448;2023-05-10T10:36:40;5.05;;;1.83;;
29432;SDS011;16405;53.964;13.448;2023-05-10T10:39:12;4.68;;;2.03;;
29432;SDS011;16405;53.964;13.448;2023-05-10T10:41:40;9.43;;;2.25;;
29432;SDS011;16405;53.964;13.448;2023-05-10T10:47:00;4.97;;;1.88;;
29432;SDS011;16405;53.964;13.448;2023-05-10T11:00:19;9.80;;;1.95;;
29432;SDS011;16405;53.964;13.448;2023-05-10T11:05:44;11.95;;;2.00;;
29432;SDS011;16405;53.964;13.448;2023-05-10T11:11:12;43.53;;;4.55;;
29432;SDS011;16405;53.964;13.448;2023-05-10T11:13:41;10.00;;;1.95;;
29432;SDS011;16405;53.964;13.448;2023-05-10T11:16:16;8.10;;;1.77;;
29432;SDS011;16405;53.964;13.448;2023-05-10T11:21:23;6.00;;;1.77;;
29432;SDS011;16405;53.964;13.448;2023-05-10T11:23:50;6.25;;;1.63;;
29432;SDS011;16405;53.964;13.448;2023-05-10T11:26:21;7.75;;;2.15;;
29432;SDS011;16405;53.964;13.448;2023-05-10T11:28:52;9.88;;;2.40;;
29432;SDS011;16405;53.964;13.448;2023-05-10T11:31:23;9.48;;;2.05;;
29432;SDS011;16405;53.964;13.448;2023-05-10T11:33:55;9.23;;;2.00;;
29432;SDS011;16405;53.964;13.448;2023-05-10T11:36:24;6.03;;;1.83;;
29432;SDS011;16405;53.964;13.448;2023-05-10T11:38:52;7.75;;;2.00;;
29432;SDS011;16405;53.964;13.448;2023-05-10T11:41:19;4.97;;;1.58;;
29432;SDS011;16405;53.964;13.448;2023-05-10T11:43:47;2.47;;;1.60;;
29432;SDS011;16405;53.964;13.448;2023-05-10T11:46:15;5.07;;;1.85;;
29432;SDS011;16405;53.964;13.448;2023-05-10T11:48:45;6.88;;;1.38;;
29432;SDS011;16405;53.964;13.448;2023-05-10T11:51:12;6.50;;;1.92;;
29432;SDS011;16405;53.964;13.448;2023-05-10T11:53:38;4.25;;;1.75;;
29432;SDS011;16405;53.964;13.448;2023-05-10T11:58:35;10.18;;;2.10;;
29432;SDS011;16405;53.964;13.448;2023-05-10T12:01:03;6.18;;;2.20;;
29432;SDS011;16405;53.964;13.448;2023-05-10T12:03:33;4.82;;;2.03;;
29432;SDS011;16405;53.964;13.448;2023-05-10T12:06:00;4.95;;;1.90;;
29432;SDS011;16405;53.964;13.448;2023-05-10T12:08:27;9.88;;;2.22;;
29432;SDS011;16405;53.964;13.448;2023-05-10T12:11:08;5.00;;;1.90;;
29432;SDS011;16405;53.964;13.448;2023-05-10T12:13:39;11.07;;;1.75;;
29432;SDS011;16405;53.964;13.448;2023-05-10T12:18:49;4.57;;;1.70;;
29432;SDS011;16405;53.964;13.448;2023-05-10T12:23:52;8.25;;;1.63;;
29432;SDS011;16405;53.964;13.448;2023-05-10T12:26:24;2.78;;;1.42;;
29432;SDS011;16405;53.964;13.448;2023-05-10T12:28:52;6.43;;;1.50;;
29432;SDS011;16405;53.964;13.448;2023-05-10T12:31:19;5.82;;;1.60;;
29432;SDS011;16405;53.964;13.448;2023-05-10T12:33:45;6.70;;;1.65;;
29432;SDS011;16405;53.964;13.448;2023-05-10T12:36:13;6.15;;;1.55;;
29432;SDS011;16405;53.964;13.448;2023-05-10T12:38:41;5.60;;;2.08;;
29432;SDS011;16405;53.964;13.448;2023-05-10T12:41:12;3.63;;;1.88;;
29432;SDS011;16405;53.964;13.448;2023-05-10T12:43:43;5.55;;;1.58;;
29432;SDS011;16405;53.964;13.448;2023-05-10T12:46:11;5.47;;;1.63;;
29432;SDS011;16405;53.964;13.448;2023-05-10T12:48:39;4.50;;;1.70;;
29432;SDS011;16405;53.964;13.448;2023-05-10T12:51:07;6.65;;;2.28;;
29432;SDS011;16405;53.964;13.448;2023-05-10T12:53:34;2.58;;;1.73;;
29432;SDS011;16405;53.964;13.448;2023-05-10T12:56:01;7.93;;;2.83;;
29432;SDS011;16405;53.964;13.448;2023-05-10T12:58:27;2.75;;;2.08;;
29432;SDS011;16405;53.964;13.448;2023-05-10T13:00:53;4.90;;;1.77;;
29432;SDS011;16405;53.964;13.448;2023-05-10T13:03:21;7.30;;;2.17;;
29432;SDS011;16405;53.964;13.448;2023-05-10T13:05:47;12.73;;;3.50;;
29432;SDS011;16405;53.964;13.448;2023-05-10T13:08:13;7.70;;;2.17;;
29432;SDS011;16405;53.964;13.448;2023-05-10T13:10:39;10.73;;;3.05;;
29432;SDS011;16405;53.964;13.448;2023-05-10T13:13:05;6.72;;;2.10;;
29432;SDS011;16405;53.964;13.448;2023-05-10T13:15:32;2.78;;;1.90;;
29432;SDS011;16405;53.964;13.448;2023-05-10T13:17:58;5.68;;;1.60;;
29432;SDS011;16405;53.964;13.448;2023-05-10T13:20:25;5.80;;;2.10;;
29432;SDS011;16405;53.964;13.448;2023-05-10T13:22:52;2.35;;;1.40;;
29432;SDS011;16405;53.964;13.448;2023-05-10T13:25:18;9.30;;;1.92;;
29432;SDS011;16405;53.964;13.448;2023-05-10T13:27:44;4.78;;;1.70;;
29432;SDS011;16405;53.964;13.448;2023-05-10T13:30:10;10.18;;;1.90;;
29432;SDS011;16405;53.964;13.448;2023-05-10T13:32:37;9.20;;;1.98;;
29432;SDS011;16405;53.964;13.448;2023-05-10T13:35:03;3.75;;;1.95;;
29432;SDS011;16405;53.964;13.448;2023-05-10T13:37:32;6.20;;;1.90;;
29432;SDS011;16405;53.964;13.448;2023-05-10T13:40:02;5.68;;;2.03;;
29432;SDS011;16405;53.964;13.448;2023-05-10T13:42:29;18.30;;;5.07;;
29432;SDS011;16405;53.964;13.448;2023-05-10T13:44:56;12.38;;;4.50;;
29432;SDS011;16405;53.964;13.448;2023-05-10T13:47:22;8.65;;;3.00;;
29432;SDS011;16405;53.964;13.448;2023-05-10T13:49:48;6.65;;;2.65;;
29432;SDS011;16405;53.964;13.448;2023-05-10T13:52:14;6.32;;;2.50;;
29432;SDS011;16405;53.964;13.448;2023-05-10T13:57:05;7.35;;;1.92;;
29432;SDS011;16405;53.964;13.448;2023-05-10T13:59:31;10.80;;;4.10;;
29432;SDS011;16405;53.964;13.448;2023-05-10T14:01:58;13.75;;;5.18;;
29432;SDS011;16405;53.964;13.448;2023-05-10T14:04:25;7.20;;;2.20;;
29432;SDS011;16405;53.964;13.448;2023-05-10T14:06:51;7.35;;;2.08;;
29432;SDS011;16405;53.964;13.448;2023-05-10T14:09:17;13.52;;;2.10;;
29432;SDS011;16405;53.964;13.448;2023-05-10T14:11:44;3.38;;;2.20;;
29432;SDS011;16405;53.964;13.448;2023-05-10T14:14:10;4.65;;;1.90;;
29432;SDS011;16405;53.964;13.448;2023-05-10T14:16:37;7.85;;;1.90;;
29432;SDS011;16405;53.964;13.448;2023-05-10T14:19:08;3.10;;;1.90;;
29432;SDS011;16405;53.964;13.448;2023-05-10T14:21:35;6.50;;;2.30;;
29432;SDS011;16405;53.964;13.448;2023-05-10T14:24:01;8.10;;;2.00;;
29432;SDS011;16405;53.964;13.448;2023-05-10T14:26:26;3.33;;;1.98;;
29432;SDS011;16405;53.964;13.448;2023-05-10T14:28:53;6.18;;;1.80;;
29432;SDS011;16405;53.964;13.448;2023-05-10T14:31:18;3.60;;;1.88;;
29432;SDS011;16405;53.964;13.448;2023-05-10T14:33:45;8.10;;;1.83;;
29432;SDS011;16405;53.964;13.448;2023-05-10T14:36:12;2.80;;;2.13;;
29432;SDS011;16405;53.964;13.448;2023-05-10T14:38:39;4.55;;;2.15;;
29432;SDS011;16405;53.964;13.448;2023-05-10T14:41:05;3.65;;;1.70;;
29432;SDS011;16405;53.964;13.448;2023-05-10T14:43:31;2.28;;;1.73;;
29432;SDS011;16405;53.964;13.448;2023-05-10T14:45:57;4.32;;;1.80;;
29432;SDS011;16405;53.964;13.448;2023-05-10T14:48:23;10.30;;;1.88;;
29432;SDS011;16405;53.964;13.448;2023-05-10T14:50:49;4.75;;;2.65;;
29432;SDS011;16405;53.964;13.448;2023-05-10T14:53:15;6.25;;;1.58;;
29432;SDS011;16405;53.964;13.448;2023-05-10T14:55:41;4.20;;;1.60;;
29432;SDS011;16405;53.964;13.448;2023-05-10T14:58:07;6.00;;;1.80;;
29432;SDS011;16405;53.964;13.448;2023-05-10T15:00:33;4.68;;;1.60;;
29432;SDS011;16405;53.964;13.448;2023-05-10T15:02:58;4.68;;;1.50;;
29432;SDS011;16405;53.964;13.448;2023-05-10T15:05:24;1.75;;;1.63;;
29432;SDS011;16405;53.964;13.448;2023-05-10T15:07:50;4.30;;;2.20;;
29432;SDS011;16405;53.964;13.448;2023-05-10T15:10:16;3.53;;;1.50;;
29432;SDS011;16405;53.964;13.448;2023-05-10T15:12:43;4.93;;;1.90;;
29432;SDS011;16405;53.964;13.448;2023-05-10T15:15:08;5.25;;;2.00;;
29432;SDS011;16405;53.964;13.448;2023-05-10T15:17:34;5.43;;;2.00;;
29432;SDS011;16405;53.964;13.448;2023-05-10T15:20:00;7.50;;;1.95;;
29432;SDS011;16405;53.964;13.448;2023-05-10T15:22:30;3.63;;;1.77;;
29432;SDS011;16405;53.964;13.448;2023-05-10T15:24:57;8.02;;;1.98;;
29432;SDS011;16405;53.964;13.448;2023-05-10T15:27:24;10.43;;;2.10;;
29432;SDS011;16405;53.964;13.448;2023-05-10T15:29:51;3.92;;;1.85;;
29432;SDS011;16405;53.964;13.448;2023-05-10T15:32:17;8.82;;;2.15;;
29432;SDS011;16405;53.964;13.448;2023-05-10T15:34:43;2.58;;;1.80;;
29432;SDS011;16405;53.964;13.448;2023-05-10T15:37:09;2.78;;;1.75;;
29432;SDS011;16405;53.964;13.448;2023-05-10T15:39:35;8.02;;;1.88;;
29432;SDS011;16405;53.964;13.448;2023-05-10T15:42:00;3.60;;;1.88;;
29432;SDS011;16405;53.964;13.448;2023-05-10T15:44:29;4.75;;;2.13;;
29432;SDS011;16405;53.964;13.448;2023-05-10T15:46:54;3.53;;;1.50;;
29432;SDS011;16405;53.964;13.448;2023-05-10T15:49:20;6.35;;;2.17;;
29432;SDS011;16405;53.964;13.448;2023-05-10T15:51:46;4.80;;;2.13;;
29432;SDS011;16405;53.964;13.448;2023-05-10T15:54:12;9.18;;;1.90;;
29432;SDS011;16405;53.964;13.448;2023-05-10T15:56:38;2.58;;;1.70;;
29432;SDS011;16405;53.964;13.448;2023-05-10T15:59:04;6.13;;;1.73;;